createdAt,value
2022-11-09T00:00:42.025Z,97643.81
2022-11-09T00:03:08.912Z,97638.50
2022-11-09T00:05:35.663Z,97631.06
2022-11-09T00:08:05.540Z,97650.22
2022-11-09T00:10:32.829Z,97654.81
2022-11-09T00:12:59.617Z,97625.00
2022-11-09T00:15:26.274Z,97655.94
2022-11-09T00:17:52.877Z,97652.91
2022-11-09T00:20:19.622Z,97651.19
2022-11-09T00:22:50.232Z,97621.84
2022-11-09T00:25:16.829Z,97640.91
2022-11-09T00:27:43.421Z,97521.75
2022-11-09T00:30:10.642Z,97651.69
2022-11-09T00:32:37.276Z,97656.94
2022-11-09T00:35:04.201Z,97644.56
2022-11-09T00:37:31.006Z,97646.88
2022-11-09T00:39:57.589Z,97638.84
2022-11-09T00:42:24.279Z,97636.78
2022-11-09T00:44:50.842Z,97638.59
2022-11-09T00:47:17.414Z,97627.06
2022-11-09T00:49:43.963Z,97634.81
2022-11-09T00:52:10.521Z,97640.13
2022-11-09T00:54:37.090Z,97593.69
2022-11-09T00:57:03.810Z,97635.00
2022-11-09T00:59:30.370Z,97645.50
2022-11-09T01:01:56.993Z,97635.56
2022-11-09T01:04:23.603Z,97561.81
2022-11-09T01:06:50.207Z,97628.25
2022-11-09T01:09:16.826Z,97493.47
2022-11-09T01:11:43.365Z,97601.56
2022-11-09T01:14:10.801Z,97579.63
2022-11-09T01:16:37.537Z,97622.41
2022-11-09T01:19:04.157Z,97551.63
2022-11-09T01:21:30.773Z,97617.28
2022-11-09T01:23:58.537Z,97628.44
2022-11-09T01:26:25.726Z,97556.03
2022-11-09T01:28:52.261Z,97583.69
2022-11-09T01:31:21.171Z,97621.31
2022-11-09T01:33:48.444Z,97572.16
2022-11-09T01:36:18.357Z,97627.47
2022-11-09T01:38:45.350Z,97575.06
2022-11-09T01:41:23.468Z,97628.44
2022-11-09T01:44:07.344Z,97634.88
2022-11-09T01:46:41.353Z,97632.06
2022-11-09T01:49:24.485Z,97615.53
2022-11-09T01:51:56.706Z,97629.50
2022-11-09T01:54:29.020Z,97617.66
2022-11-09T01:57:01.166Z,97631.19
2022-11-09T01:59:36.533Z,97621.25
2022-11-09T02:02:04.775Z,97618.22
2022-11-09T02:04:36.727Z,97622.72
2022-11-09T02:07:04.642Z,97629.22
2022-11-09T02:09:31.205Z,97620.75
2022-11-09T02:11:58.138Z,97544.81
2022-11-09T02:14:26.696Z,97620.16
2022-11-09T02:16:53.415Z,97626.69
2022-11-09T02:19:19.962Z,97624.38
2022-11-09T02:21:46.624Z,97604.88
2022-11-09T02:24:13.183Z,97560.56
2022-11-09T02:26:50.962Z,97602.47
2022-11-09T02:29:22.595Z,97617.84
2022-11-09T02:31:57.296Z,97624.38
2022-11-09T02:34:24.855Z,97532.44
2022-11-09T02:36:51.540Z,97620.41
2022-11-09T02:39:20.860Z,97620.63
2022-11-09T02:41:54.408Z,97623.59
2022-11-09T02:44:21.096Z,97598.25
2022-11-09T02:46:47.858Z,97624.38
2022-11-09T02:49:14.597Z,97623.81
2022-11-09T02:51:41.544Z,97599.81
2022-11-09T02:54:08.190Z,97621.53
2022-11-09T02:56:34.792Z,97578.16
2022-11-09T02:59:03.323Z,97610.69
2022-11-09T03:01:31.041Z,97606.44
2022-11-09T03:03:57.609Z,97632.81
2022-11-09T03:06:34.460Z,97596.09
2022-11-09T03:09:04.061Z,97634.63
2022-11-09T03:11:30.630Z,97626.81
2022-11-09T03:13:57.636Z,97631.09
2022-11-09T03:16:24.584Z,97639.91
2022-11-09T03:18:52.118Z,97632.31
2022-11-09T03:21:19.318Z,97594.84
2022-11-09T03:23:46.244Z,97553.84
2022-11-09T03:26:12.835Z,97637.03
2022-11-09T03:28:39.717Z,97628.66
2022-11-09T03:31:06.337Z,97638.94
2022-11-09T03:33:33.150Z,97633.75
2022-11-09T03:36:00.074Z,97631.06
2022-11-09T03:38:26.774Z,97637.00
2022-11-09T03:40:53.332Z,97634.41
2022-11-09T03:43:20.218Z,97630.97
2022-11-09T03:45:47.797Z,97627.28
2022-11-09T03:48:14.356Z,97629.81
2022-11-09T03:50:40.977Z,97628.59
2022-11-09T03:53:09.626Z,97628.44
2022-11-09T03:55:36.708Z,97626.72
2022-11-09T03:58:04.700Z,97590.25
2022-11-09T04:00:32.175Z,97625.94
2022-11-09T04:02:59.036Z,97631.50
2022-11-09T04:05:26.174Z,97578.09
2022-11-09T04:07:55.022Z,97586.81
2022-11-09T04:10:22.785Z,97630.00
2022-11-09T04:12:49.525Z,97631.03
2022-11-09T04:15:16.130Z,97631.63
2022-11-09T04:17:44.747Z,97634.00
2022-11-09T04:20:11.880Z,97628.34
2022-11-09T04:22:38.722Z,97609.47
2022-11-09T04:25:06.008Z,97635.25
2022-11-09T04:27:32.529Z,97624.28
2022-11-09T04:29:59.112Z,97616.91
2022-11-09T04:32:25.716Z,97632.38
2022-11-09T04:34:52.244Z,97624.78
2022-11-09T04:37:18.888Z,97636.09
2022-11-09T04:39:45.421Z,97636.03
2022-11-09T04:42:11.959Z,97573.84
2022-11-09T04:44:38.827Z,97626.56
2022-11-09T04:47:05.458Z,97635.56
2022-11-09T04:49:31.997Z,97630.16
2022-11-09T04:51:58.556Z,97629.06
2022-11-09T04:54:25.118Z,97638.13
2022-11-09T04:56:51.710Z,97583.88
2022-11-09T04:59:18.343Z,97637.38
2022-11-09T05:01:44.885Z,97647.34
2022-11-09T05:04:11.570Z,97644.72
2022-11-09T05:06:38.254Z,97560.19
2022-11-09T05:09:06.950Z,97647.19
2022-11-09T05:11:35.538Z,97653.06
2022-11-09T05:14:02.673Z,97651.94
2022-11-09T05:16:29.839Z,97669.22
2022-11-09T05:18:56.405Z,97665.28
2022-11-09T05:21:23.588Z,97580.56
2022-11-09T05:23:59.611Z,97613.31
2022-11-09T05:26:34.503Z,97659.59
2022-11-09T05:29:03.485Z,97664.34
2022-11-09T05:31:30.453Z,97639.81
2022-11-09T05:33:57.529Z,97554.41
2022-11-09T05:36:24.127Z,97663.75
2022-11-09T05:38:50.736Z,97666.50
2022-11-09T05:41:17.787Z,97626.44
2022-11-09T05:43:45.500Z,97610.56
2022-11-09T05:46:15.677Z,97676.38
2022-11-09T05:48:43.333Z,97605.94
2022-11-09T05:51:11.892Z,97680.44
2022-11-09T05:53:45.889Z,97674.06
2022-11-09T05:56:13.427Z,97675.34
2022-11-09T05:58:41.395Z,97684.19
2022-11-09T06:01:13.408Z,97675.66
2022-11-09T06:03:42.090Z,97671.53
2022-11-09T06:06:09.977Z,97679.88
2022-11-09T06:08:37.819Z,97672.16
2022-11-09T06:11:06.766Z,97627.25
2022-11-09T06:13:33.723Z,97638.03
2022-11-09T06:16:02.169Z,97695.56
2022-11-09T06:18:30.777Z,97673.22
2022-11-09T06:20:59.698Z,97691.81
2022-11-09T06:23:27.025Z,97686.16
2022-11-09T06:25:57.873Z,97687.41
2022-11-09T06:28:24.553Z,97692.41
2022-11-09T06:30:51.336Z,97692.53
2022-11-09T06:33:18.154Z,97556.31
2022-11-09T06:35:44.973Z,97693.06
2022-11-09T06:38:11.709Z,97670.63
2022-11-09T06:40:39.273Z,97668.22
2022-11-09T06:43:06.014Z,97655.44
2022-11-09T06:45:33.393Z,97610.81
2022-11-09T06:48:02.414Z,97687.09
2022-11-09T06:50:31.329Z,97690.47
2022-11-09T06:53:02.711Z,97692.06
2022-11-09T06:55:30.661Z,97686.50
2022-11-09T06:57:58.426Z,97637.28
2022-11-09T07:00:26.229Z,97686.41
2022-11-09T07:02:52.964Z,97681.00
2022-11-09T07:05:20.096Z,97687.69
2022-11-09T07:07:46.714Z,97695.97
2022-11-09T07:10:13.473Z,97695.25
2022-11-09T07:12:40.065Z,97629.34
2022-11-09T07:15:07.198Z,97648.53
2022-11-09T07:17:34.825Z,97673.03
2022-11-09T07:20:01.429Z,97619.28
2022-11-09T07:22:28.431Z,97645.94
2022-11-09T07:24:55.867Z,97631.91
2022-11-09T07:27:27.468Z,97669.50
2022-11-09T07:29:54.330Z,97667.03
2022-11-09T07:32:24.601Z,97667.91
2022-11-09T07:35:04.346Z,97668.09
2022-11-09T07:37:31.545Z,97574.34
2022-11-09T07:39:58.479Z,97540.66
2022-11-09T07:42:25.308Z,97580.97
2022-11-09T07:44:51.927Z,97691.59
2022-11-09T07:47:19.682Z,97634.00
2022-11-09T07:49:46.894Z,97643.00
2022-11-09T07:52:13.965Z,97618.97
2022-11-09T07:54:40.890Z,97597.47
2022-11-09T07:57:07.639Z,97658.66
2022-11-09T07:59:34.372Z,97636.63
2022-11-09T08:02:01.101Z,97350.03
2022-11-09T08:04:27.840Z,97558.47
2022-11-09T08:06:54.741Z,97652.94
2022-11-09T08:09:21.380Z,97656.38
2022-11-09T08:11:47.945Z,97660.47
2022-11-09T08:14:14.553Z,97605.34
2022-11-09T08:16:41.103Z,97594.28
2022-11-09T08:19:09.635Z,97301.75
2022-11-09T08:21:37.181Z,97654.56
2022-11-09T08:24:05.619Z,97630.25
2022-11-09T08:26:32.598Z,97570.66
2022-11-09T08:28:59.201Z,97628.69
2022-11-09T08:31:25.801Z,97662.66
2022-11-09T08:33:52.463Z,97664.66
2022-11-09T08:36:19.305Z,97624.25
2022-11-09T08:38:46.351Z,97639.97
2022-11-09T08:41:14.137Z,97652.41
2022-11-09T08:43:41.339Z,97650.84
2022-11-09T08:46:08.071Z,97591.25
2022-11-09T08:48:34.707Z,97602.88
2022-11-09T08:51:01.327Z,97645.31
2022-11-09T08:53:29.287Z,97307.91
2022-11-09T08:55:56.413Z,97649.31
2022-11-09T08:58:23.595Z,97647.69
2022-11-09T09:00:50.584Z,97582.88
2022-11-09T09:03:17.879Z,97608.44
2022-11-09T09:05:44.447Z,97664.38
2022-11-09T09:08:12.889Z,97649.53
2022-11-09T09:10:40.471Z,97650.78
2022-11-09T09:13:07.234Z,97646.34
2022-11-09T09:15:34.462Z,97596.34
2022-11-09T09:18:02.317Z,97583.59
2022-11-09T09:20:29.018Z,97589.22
2022-11-09T09:22:59.211Z,97650.03
2022-11-09T09:25:27.100Z,97595.63
2022-11-09T09:27:53.735Z,97670.44
2022-11-09T09:30:20.285Z,97632.34
2022-11-09T09:32:46.887Z,97629.94
2022-11-09T09:35:13.466Z,97631.56
2022-11-09T09:37:40.081Z,97628.25
2022-11-09T09:40:07.157Z,97577.03
2022-11-09T09:42:43.010Z,97557.19
2022-11-09T09:45:20.335Z,97511.88
2022-11-09T09:48:12.834Z,97607.66
2022-11-09T09:51:00.708Z,97615.72
2022-11-09T09:53:34.118Z,97585.28
2022-11-09T09:56:06.292Z,97499.75
2022-11-09T09:58:35.071Z,97589.97
2022-11-09T10:01:12.134Z,97593.78
2022-11-09T10:03:38.752Z,97589.72
2022-11-09T10:06:33.151Z,97586.47
2022-11-09T10:09:14.725Z,97583.94
2022-11-09T10:11:51.977Z,97580.59
2022-11-09T10:14:28.547Z,97580.78
2022-11-09T10:17:03.210Z,97345.84
2022-11-09T10:19:53.309Z,97517.03
2022-11-09T10:22:35.359Z,97585.81
2022-11-09T10:25:23.790Z,97565.41
2022-11-09T10:27:58.009Z,97467.16
2022-11-09T10:30:27.159Z,97506.84
2022-11-09T10:33:02.832Z,97580.47
2022-11-09T10:35:35.238Z,97574.44
2022-11-09T10:38:01.811Z,97574.13
2022-11-09T10:40:41.927Z,97567.38
2022-11-09T10:43:13.982Z,97559.16
2022-11-09T10:45:43.253Z,97346.16
2022-11-09T10:48:12.600Z,97559.59
2022-11-09T10:50:52.701Z,97543.56
2022-11-09T10:53:24.891Z,97556.38
2022-11-09T10:55:55.574Z,97543.72
2022-11-09T10:58:52.629Z,97551.50
2022-11-09T11:01:20.460Z,97410.09
2022-11-09T11:03:51.378Z,97559.06
2022-11-09T11:06:20.707Z,97540.66
2022-11-09T11:08:48.972Z,97542.78
2022-11-09T11:11:35.410Z,97168.75
2022-11-09T11:14:19.902Z,97539.28
2022-11-09T11:16:47.068Z,97529.66
2022-11-09T11:19:34.958Z,97511.84
2022-11-09T11:22:19.693Z,97529.31
2022-11-09T11:24:50.862Z,97191.56
2022-11-09T11:27:27.367Z,97521.13
2022-11-09T11:30:10.703Z,97528.00
2022-11-09T11:32:37.388Z,97517.59
2022-11-09T11:35:11.546Z,97468.91
2022-11-09T11:37:47.178Z,97520.63
2022-11-09T11:40:13.675Z,97516.81
2022-11-09T11:42:45.987Z,97511.94
2022-11-09T11:45:40.104Z,97508.53
2022-11-09T11:48:26.131Z,97500.34
2022-11-09T11:51:24.950Z,97508.13
2022-11-09T11:54:14.068Z,97516.13
2022-11-09T11:56:52.725Z,97497.38
2022-11-09T11:59:38.324Z,97500.63
2022-11-09T12:02:37.151Z,97500.47
2022-11-09T12:05:09.681Z,97508.06
2022-11-09T12:08:08.697Z,97505.38
2022-11-09T12:10:56.615Z,97442.38
2022-11-09T12:13:39.868Z,97500.91
2022-11-09T12:16:28.109Z,97502.72
2022-11-09T12:19:35.065Z,97443.50
2022-11-09T12:22:30.294Z,97421.47
2022-11-09T12:25:23.537Z,97492.91
2022-11-09T12:28:15.065Z,97495.81
2022-11-09T12:30:56.377Z,97470.06
2022-11-09T12:33:35.432Z,97486.72
2022-11-09T12:36:13.841Z,97262.88
2022-11-09T12:39:31.389Z,97492.22
2022-11-09T12:42:04.380Z,97144.03
2022-11-09T12:44:43.278Z,97284.38
2022-11-09T12:47:20.753Z,97480.28
2022-11-09T12:49:47.594Z,97483.47
2022-11-09T12:52:19.450Z,97451.16
2022-11-09T12:54:49.600Z,97438.13
2022-11-09T12:57:25.820Z,97474.13
2022-11-09T12:59:57.603Z,97494.00
2022-11-09T13:02:39.126Z,97495.59
2022-11-09T13:05:26.300Z,97375.00
2022-11-09T13:07:54.623Z,97492.91
2022-11-09T13:10:28.315Z,97131.00
2022-11-09T13:13:19.969Z,97335.72
2022-11-09T13:16:33.206Z,97491.16
2022-11-09T13:19:02.958Z,97420.88
2022-11-09T13:21:29.498Z,97483.53
2022-11-09T13:24:05.308Z,97486.72
2022-11-09T13:26:33.678Z,97486.03
2022-11-09T13:29:15.502Z,97480.50
2022-11-09T13:32:10.935Z,97492.66
2022-11-09T13:34:43.517Z,97483.38
2022-11-09T13:37:40.794Z,97488.66
2022-11-09T13:40:32.667Z,97487.53
2022-11-09T13:43:15.421Z,97514.91
2022-11-09T13:45:53.041Z,97443.91
2022-11-09T13:48:35.921Z,97476.59
2022-11-09T13:51:05.984Z,97439.22
2022-11-09T13:53:38.543Z,97483.63
2022-11-09T13:56:27.602Z,97492.84
2022-11-09T13:59:15.793Z,97488.06
2022-11-09T14:01:50.265Z,97445.50
2022-11-09T14:04:27.451Z,97487.84
2022-11-09T14:07:07.506Z,97502.03
2022-11-09T14:09:57.247Z,97487.59
2022-11-09T14:12:42.365Z,97483.25
2022-11-09T14:15:47.690Z,97490.06
2022-11-09T14:18:49.892Z,97495.31
2022-11-09T14:21:35.266Z,97498.94
2022-11-09T14:24:17.525Z,97360.69
2022-11-09T14:27:09.188Z,97493.34
2022-11-09T14:29:54.369Z,97483.75
2022-11-09T14:32:35.651Z,97506.13
2022-11-09T14:35:14.570Z,97501.31
2022-11-09T14:37:45.130Z,97496.47
2022-11-09T14:40:28.634Z,97488.03
2022-11-09T14:42:57.311Z,97512.34
2022-11-09T14:45:24.533Z,97454.69
2022-11-09T14:47:54.631Z,97433.66
2022-11-09T14:50:27.413Z,97512.06
2022-11-09T14:52:55.611Z,97511.22
2022-11-09T14:55:24.330Z,97513.16
2022-11-09T14:57:54.049Z,97521.84
2022-11-09T15:00:32.992Z,97514.06
2022-11-09T15:03:20.380Z,97516.38
2022-11-09T15:05:47.137Z,97519.56
2022-11-09T15:08:22.585Z,97470.59
2022-11-09T15:10:52.293Z,97525.75
2022-11-09T15:13:27.742Z,97522.03
2022-11-09T15:15:55.097Z,97504.16
2022-11-09T15:18:33.530Z,97525.06
2022-11-09T15:21:30.213Z,97525.84
2022-11-09T15:24:10.215Z,97529.75
2022-11-09T15:26:44.407Z,97531.72
2022-11-09T15:29:36.390Z,97526.34
2022-11-09T15:32:08.960Z,97536.94
2022-11-09T15:34:39.342Z,97537.38
2022-11-09T15:37:42.888Z,97532.06
2022-11-09T15:40:13.098Z,97538.78
2022-11-09T15:42:43.609Z,97553.66
2022-11-09T15:45:18.491Z,97546.38
2022-11-09T15:47:56.132Z,97531.50
2022-11-09T15:50:26.273Z,97544.41
2022-11-09T15:52:52.999Z,97565.06
2022-11-09T15:55:23.000Z,97568.22
2022-11-09T15:57:50.939Z,97575.22
2022-11-09T16:00:21.210Z,97514.25
2022-11-09T16:02:48.519Z,97575.34
2022-11-09T16:05:15.801Z,97572.56
2022-11-09T16:07:53.810Z,97564.63
2022-11-09T16:10:23.239Z,97596.06
2022-11-09T16:12:53.401Z,97574.22
2022-11-09T16:15:20.384Z,97493.16
2022-11-09T16:17:49.684Z,97583.53
2022-11-09T16:20:17.730Z,97569.59
2022-11-09T16:22:44.996Z,97560.91
2022-11-09T16:25:12.517Z,97588.25
2022-11-09T16:27:55.293Z,97542.44
2022-11-09T16:30:22.336Z,97608.19
2022-11-09T16:32:49.531Z,97610.09
2022-11-09T16:35:26.667Z,97609.66
2022-11-09T16:37:55.253Z,97609.66
2022-11-09T16:40:22.850Z,97601.69
2022-11-09T16:42:51.330Z,97605.56
2022-11-09T16:45:17.993Z,97597.44
2022-11-09T16:47:49.220Z,97551.53
2022-11-09T16:50:16.273Z,97614.34
2022-11-09T16:52:43.029Z,97608.78
2022-11-09T16:55:10.267Z,97614.25
2022-11-09T16:57:37.292Z,97640.75
2022-11-09T17:00:06.051Z,97626.69
2022-11-09T17:02:33.458Z,97444.16
2022-11-09T17:05:00.042Z,97629.97
2022-11-09T17:07:26.812Z,97620.38
2022-11-09T17:09:53.437Z,97518.22
2022-11-09T17:12:20.129Z,97628.59
2022-11-09T17:14:46.691Z,97629.09
2022-11-09T17:17:16.951Z,97626.16
2022-11-09T17:19:46.818Z,97509.13
2022-11-09T17:22:14.660Z,97634.06
2022-11-09T17:24:41.295Z,97638.69
2022-11-09T17:27:09.721Z,97632.28
2022-11-09T17:29:40.183Z,97643.44
2022-11-09T17:32:08.664Z,97648.09
2022-11-09T17:34:35.403Z,97648.72
2022-11-09T17:37:05.182Z,97654.97
2022-11-09T17:39:33.103Z,97600.19
2022-11-09T17:41:59.756Z,97529.34
2022-11-09T17:44:26.633Z,97647.84
2022-11-09T17:46:53.278Z,97563.69
2022-11-09T17:49:19.870Z,97665.81
2022-11-09T17:51:46.445Z,97643.69
2022-11-09T17:54:14.979Z,97654.34
2022-11-09T17:56:42.127Z,97523.94
2022-11-09T17:59:09.120Z,97657.16
2022-11-09T18:01:41.082Z,97625.31
2022-11-09T18:04:11.265Z,97663.63
2022-11-09T18:06:38.653Z,97635.44
2022-11-09T18:11:52.726Z,97613.38
2022-11-09T18:14:19.540Z,97612.38
2022-11-09T18:16:46.131Z,97622.13
2022-11-09T18:19:13.118Z,97671.91
2022-11-09T18:21:39.694Z,97679.75
2022-11-09T18:24:06.673Z,97668.94
2022-11-09T18:26:33.356Z,97694.31
2022-11-09T18:29:00.274Z,97639.50
2022-11-09T18:31:26.874Z,97678.41
2022-11-09T18:33:55.950Z,97695.91
2022-11-09T18:36:23.440Z,97688.97
2022-11-09T18:38:52.041Z,97690.59
2022-11-09T18:41:21.939Z,97687.84
2022-11-09T18:43:49.872Z,97629.38
2022-11-09T18:46:18.626Z,97662.38
2022-11-09T18:48:45.590Z,97698.06
2022-11-09T18:51:12.468Z,97663.16
2022-11-09T18:53:44.316Z,97692.44
2022-11-09T18:56:19.128Z,97711.56
2022-11-09T18:58:46.470Z,97695.00
2022-11-09T19:01:13.348Z,97689.63
2022-11-09T19:03:40.074Z,97696.88
2022-11-09T19:06:09.089Z,97692.75
2022-11-09T19:08:54.406Z,97698.75
2022-11-09T19:11:21.003Z,97697.16
2022-11-09T19:13:47.988Z,97675.03
2022-11-09T19:16:15.599Z,97690.91
2022-11-09T19:18:42.579Z,97628.97
2022-11-09T19:21:40.188Z,97706.34
2022-11-09T19:24:08.210Z,97638.88
2022-11-09T19:26:35.300Z,97705.81
2022-11-09T19:29:02.135Z,97688.28
2022-11-09T19:31:29.096Z,97703.84
2022-11-09T19:33:55.813Z,97714.66
2022-11-09T19:36:30.735Z,97729.31
2022-11-09T19:38:58.202Z,97704.28
2022-11-09T19:41:25.490Z,97723.19
2022-11-09T19:43:58.655Z,97727.53
2022-11-09T19:46:33.178Z,97730.78
2022-11-09T19:49:00.658Z,97725.38
2022-11-09T19:51:29.441Z,97721.47
2022-11-09T19:53:57.447Z,97719.28
2022-11-09T19:56:26.075Z,97723.66
2022-11-09T19:58:55.393Z,97723.88
2022-11-09T20:01:22.876Z,97701.75
2022-11-09T20:03:56.677Z,97727.31
2022-11-09T20:06:24.341Z,97733.06
2022-11-09T20:08:52.131Z,97721.09
2022-11-09T20:11:39.436Z,97599.41
2022-11-09T20:14:06.848Z,97729.84
2022-11-09T20:16:35.346Z,97732.81
2022-11-09T20:19:03.918Z,97725.22
2022-11-09T20:21:30.538Z,97725.34
2022-11-09T20:23:57.602Z,97727.75
2022-11-09T20:26:24.220Z,97728.66
2022-11-09T20:28:53.387Z,97594.44
2022-11-09T20:31:21.466Z,97722.94
2022-11-09T20:33:49.524Z,97723.88
2022-11-09T20:36:18.628Z,97723.41
2022-11-09T20:38:45.909Z,97722.03
2022-11-09T20:41:13.233Z,97732.25
2022-11-09T20:43:40.427Z,97730.31
2022-11-09T20:46:16.115Z,97727.63
2022-11-09T20:48:58.770Z,97726.81
2022-11-09T20:51:26.085Z,97629.06
2022-11-09T20:53:52.937Z,97727.47
2022-11-09T20:56:20.586Z,97715.94
2022-11-09T20:58:47.328Z,97713.69
2022-11-09T21:01:20.818Z,97717.97
2022-11-09T21:03:48.880Z,97710.59
2022-11-09T21:06:15.523Z,97716.50
2022-11-09T21:08:47.295Z,97705.44
2022-11-09T21:11:13.884Z,97702.19
2022-11-09T21:13:41.815Z,97673.72
2022-11-09T21:16:13.912Z,97708.38
2022-11-09T21:18:41.466Z,97720.84
2022-11-09T21:21:13.501Z,97698.84
2022-11-09T21:23:59.013Z,97635.59
2022-11-09T21:26:44.834Z,97714.16
2022-11-09T21:29:35.787Z,97702.19
2022-11-09T21:32:03.319Z,97706.31
2022-11-09T21:34:35.353Z,97572.84
2022-11-09T21:37:03.085Z,97668.25
2022-11-09T21:39:29.613Z,97717.34
2022-11-09T21:41:56.182Z,97710.91
2022-11-09T21:44:22.926Z,97673.97
2022-11-09T21:46:49.464Z,97719.97
2022-11-09T21:49:16.061Z,97718.91
2022-11-09T21:51:42.684Z,97590.97
2022-11-09T21:54:10.142Z,97717.31
2022-11-09T21:56:36.908Z,97721.66
2022-11-09T21:59:04.247Z,97719.78
2022-11-09T22:01:30.980Z,97719.34
2022-11-09T22:03:58.126Z,97689.31
2022-11-09T22:06:25.750Z,97722.53
2022-11-09T22:08:52.854Z,97675.91
2022-11-09T22:11:41.561Z,97649.28
2022-11-09T22:14:34.860Z,97721.91
2022-11-09T22:17:02.172Z,97726.75
2022-11-09T22:19:47.397Z,97692.31
2022-11-09T22:22:14.878Z,97704.44
2022-11-09T22:24:42.002Z,97725.53
2022-11-09T22:27:08.944Z,97722.31
2022-11-09T22:29:35.524Z,97721.25
2022-11-09T22:32:02.238Z,97721.00
2022-11-09T22:34:28.782Z,97713.97
2022-11-09T22:36:55.363Z,97711.94
2022-11-09T22:39:22.807Z,97703.09
2022-11-09T22:41:49.477Z,97712.28
2022-11-09T22:44:16.122Z,97689.09
2022-11-09T22:46:42.692Z,97710.06
2022-11-09T22:49:10.277Z,97711.16
2022-11-09T22:51:36.845Z,97706.31
2022-11-09T22:54:03.529Z,97705.84
2022-11-09T22:56:30.090Z,97703.47
2022-11-09T22:58:57.206Z,97715.34
2022-11-09T23:01:23.870Z,97715.47
2022-11-09T23:03:50.489Z,97716.13
2022-11-09T23:06:20.759Z,97600.34
2022-11-09T23:08:47.530Z,97674.31
2022-11-09T23:11:17.570Z,97715.72
2022-11-09T23:13:44.578Z,97648.06
2022-11-09T23:16:12.014Z,97654.09
2022-11-09T23:18:54.072Z,97721.91
2022-11-09T23:21:20.730Z,97711.16
2022-11-09T23:23:48.294Z,97709.91
2022-11-09T23:26:15.191Z,97652.81
2022-11-09T23:28:41.783Z,97715.47
2022-11-09T23:31:11.588Z,97725.34
2022-11-09T23:33:38.347Z,97657.81
2022-11-09T23:36:06.050Z,97705.59
2022-11-09T23:38:34.220Z,97706.13
2022-11-09T23:41:02.592Z,97727.59
2022-11-09T23:43:29.143Z,97526.16
2022-11-09T23:45:57.116Z,97702.72
2022-11-09T23:48:23.748Z,97646.41
2022-11-09T23:50:50.330Z,97703.41
2022-11-09T23:53:16.902Z,97708.63
2022-11-09T23:55:43.634Z,97704.47
2022-11-09T23:58:10.165Z,97707.56
